»·PEaware :: N677DM KSBA-KBUR

N677DM :: KSBA-KBUR

FLIGHT INFORMATION

Flight Status: Arrived
Operator: Privately registered:
United States
More flights under this callsign
Pilot: Antoine M. (30809)
Aircraft: CESSNA 172 SKYHAWK
(C172)
More flights by this aircraft type
Origin: KSBA Santa Barbara Mun
United States
Destination: KBUR Bob Hope-Burbank
United States
More flights between these airports :: More routes between these airports
Route: KWANG KCMA SUANA
File this flight plan on PilotEdge
Remarks:
Altitude:
(Current/Filed)
5,500ft
Speed:
(Current/Filed)
110kts
Departed: 01-Aug-20 02:53 PM
Arrived: 01-Aug-20 03:30 PM
Distance/Time
Traveled:
74nm/0:36
Distance/Time
To Go:
Arrived

Flight Plot

Page will automatically refresh every two minutes.


Map Options




Map Legend


Flown Route
Filed Route
Departure Airport
Arrival Airport
Navaid (VOR, NDB)
Fix

Horizontal Profiles

Position Reports

Time Latitude Longitude Heading Altitude Ground
Speed
01-Aug-20 14:37 34.432614 -119.836244 72 13ft 0kts
01-Aug-20 14:38 34.432615 -119.836242 72 13ft 0kts
01-Aug-20 14:39 34.432616 -119.836238 72 13ft 0kts
01-Aug-20 14:40 34.432616 -119.836236 72 13ft 0kts
01-Aug-20 14:41 34.432617 -119.836233 72 13ft 0kts
01-Aug-20 14:42 34.432618 -119.836230 72 13ft 0kts
01-Aug-20 14:43 34.432618 -119.836228 72 13ft 0kts
01-Aug-20 14:44 34.432619 -119.836225 72 13ft 0kts
01-Aug-20 14:45 34.432620 -119.836222 72 13ft 0kts
01-Aug-20 14:46 34.432015 -119.835832 161 13ft 5kts
01-Aug-20 14:47 34.431103 -119.838503 251 13ft 14kts
01-Aug-20 14:48 34.430737 -119.839650 249 13ft 0kts
01-Aug-20 14:49 34.430736 -119.839653 249 13ft 0kts
01-Aug-20 14:50 34.430735 -119.839657 249 13ft 0kts
01-Aug-20 14:51 34.430659 -119.839899 249 13ft 6kts
01-Aug-20 14:52 34.415622 -119.835487 165 339ft 104kts
01-Aug-20 14:53 34.384444 -119.826429 165 985ft 118kts
01-Aug-20 14:54 34.350814 -119.814129 166 1423ft 138kts
01-Aug-20 14:55 34.317087 -119.792548 103 1416ft 150kts
01-Aug-20 14:56 34.313201 -119.749802 96 1420ft 119kts
01-Aug-20 14:57 34.309296 -119.708457 93 1519ft 119kts
01-Aug-20 14:58 34.305790 -119.668270 96 2228ft 122kts
01-Aug-20 14:59 34.304313 -119.627454 90 2988ft 119kts
01-Aug-20 15:00 34.303369 -119.586175 90 3507ft 136kts
01-Aug-20 15:01 34.302548 -119.538302 88 3560ft 141kts
01-Aug-20 15:02 34.303235 -119.494159 91 4229ft 125kts
01-Aug-20 15:03 34.296265 -119.453849 105 4956ft 121kts
01-Aug-20 15:04 34.289677 -119.416732 105 5486ft 132kts
01-Aug-20 15:05 34.281492 -119.370156 105 5508ft 145kts
01-Aug-20 15:06 34.272601 -119.321914 105 5507ft 148kts
01-Aug-20 15:07 34.262990 -119.273213 105 5526ft 149kts
01-Aug-20 15:08 34.252788 -119.225778 104 5513ft 138kts
01-Aug-20 15:09 34.243493 -119.180993 108 5521ft 136kts
01-Aug-20 15:10 34.234308 -119.137423 108 5516ft 132kts
01-Aug-20 15:11 34.225444 -119.094603 108 5522ft 131kts
01-Aug-20 15:12 34.218685 -119.051251 87 5572ft 132kts
01-Aug-20 15:13 34.220527 -119.005597 87 5563ft 138kts
01-Aug-20 15:14 34.222635 -118.959154 87 5558ft 138kts
01-Aug-20 15:15 34.224877 -118.912847 89 5548ft 138kts
01-Aug-20 15:16 34.225590 -118.865958 90 5440ft 141kts
01-Aug-20 15:17 34.226396 -118.818667 87 5307ft 142kts
01-Aug-20 15:18 34.226221 -118.770899 87 5112ft 141kts
01-Aug-20 15:19 34.226055 -118.723751 87 4915ft 140kts
01-Aug-20 15:20 34.222039 -118.676936 96 4685ft 141kts
01-Aug-20 15:21 34.216180 -118.629770 96 4347ft 143kts
01-Aug-20 15:22 34.211048 -118.581636 93 3953ft 145kts
01-Aug-20 15:23 34.208292 -118.535657 88 3504ft 125kts
01-Aug-20 15:24 34.211284 -118.497274 84 3123ft 122kts
01-Aug-20 15:25 34.214576 -118.456657 84 2723ft 121kts
01-Aug-20 15:26 34.205915 -118.427959 118 2203ft 79kts
01-Aug-20 15:27 34.200515 -118.403678 100 1609ft 63kts
01-Aug-20 15:28 34.198582 -118.382631 95 1211ft 67kts
01-Aug-20 15:29 34.197757 -118.365211 105 724ft 10kts
01-Aug-20 15:30 34.197263 -118.364744 183 724ft 0kts
01-Aug-20 15:31 34.195969 -118.363695 167 724ft 0kts

Navigation Log

Ident Type
Flight plan parsing failed, navigation log unavailable